Time;durP1;ratioP1;P1;durP2;ratioP2;P2;SDS_P1;SDS_P2;PMS_P1;PMS_P2;Temp;Humidity;BMP_temperature;BMP_pressure;BME280_temperature;BME280_humidity;BME280_pressure;Samples;Min_cycle;Max_cycle;Signal;HPM_P1;HPM_P2
2023/09/26 00:00:40;;;;;;;;;;;;;;;21.23;54.86;99935.50;3157511;28;19924;-78
2023/09/26 00:02:11;;;;;;;;;;;;;;;21.24;54.86;99925.78;3150790;28;19990;-78
2023/09/26 00:03:42;;;;;;;;;;;;;;;21.26;55.03;99924.66;3155495;28;20003;-78
2023/09/26 00:05:13;;;;;;;;;;;;;;;21.28;54.97;99933.31;3161578;28;20015;-78
2023/09/26 00:06:45;;;;;;;;;;;;;;;21.29;54.70;99931.50;3162708;28;19928;-78
2023/09/26 00:08:18;;;;;;;;;;;;;;;21.30;54.78;99933.19;3158632;28;20602;-78
2023/09/26 00:09:49;;;;;;;;;;;;;;;21.32;54.65;99933.88;3157211;28;20434;-77
2023/09/26 00:11:21;;;;;;;;;;;;;;;21.33;54.51;99938.22;3158569;28;19924;-78
2023/09/26 00:12:52;;;;;;;;;;;;;;;21.34;54.74;99937.22;3157942;28;19928;-77
2023/09/26 00:14:23;;;;;;;;;;;;;;;21.33;54.47;99931.09;3158205;28;19959;-77
2023/09/26 00:15:54;;;;;;;;;;;;;;;21.34;54.63;99926.63;3157948;28;19930;-78
2023/09/26 00:17:25;;;;;;;;;;;;;;;21.33;54.73;99933.75;3157955;28;19931;-76
2023/09/26 00:18:56;;;;;;;;;;;;;;;21.34;54.44;99931.94;3158283;28;20320;-77
2023/09/26 00:20:30;;;;;;;;;;;;;;;21.33;54.67;99935.56;3158136;28;20456;-77
2023/09/26 00:22:01;;;;;;;;;;;;;;;21.32;54.66;99939.16;3157536;28;19928;-77
2023/09/26 00:23:33;;;;;;;;;;;;;;;21.30;54.82;99936.66;3158214;28;19928;-77
2023/09/26 00:25:05;;;;;;;;;;;;;;;21.30;54.52;99938.50;3157788;28;20290;-77
2023/09/26 00:26:37;;;;;;;;;;;;;;;21.30;54.58;99936.66;3157664;28;19931;-76
2023/09/26 00:28:08;;;;;;;;;;;;;;;21.29;54.80;99939.44;3158046;28;20003;-76
2023/09/26 00:29:40;;;;;;;;;;;;;;;21.27;54.68;99933.47;3157964;28;19928;-77
2023/09/26 00:31:11;;;;;;;;;;;;;;;21.23;54.77;99932.03;3157251;28;19925;-77
2023/09/26 00:32:42;;;;;;;;;;;;;;;21.17;55.17;99941.34;3157919;28;19928;-77
2023/09/26 00:34:13;;;;;;;;;;;;;;;21.11;55.14;99940.06;3157732;28;20370;-75
2023/09/26 00:35:45;;;;;;;;;;;;;;;21.06;55.32;99941.44;3157588;28;19925;-78
2023/09/26 00:37:16;;;;;;;;;;;;;;;21.00;55.76;99940.19;3157935;28;19928;-77
2023/09/26 00:38:49;;;;;;;;;;;;;;;20.97;55.83;99943.09;3157466;28;19928;-79
2023/09/26 00:40:20;;;;;;;;;;;;;;;20.95;55.90;99938.91;3157317;28;19962;-79
2023/09/26 00:41:52;;;;;;;;;;;;;;;20.91;56.22;99935.66;3157561;28;20018;-79
2023/09/26 00:43:23;;;;;;;;;;;;;;;20.88;56.11;99936.78;3157466;28;19994;-78
2023/09/26 00:44:55;;;;;;;;;;;;;;;20.88;56.22;99938.56;3157612;28;19943;-77
2023/09/26 00:46:26;;;;;;;;;;;;;;;20.85;56.43;99939.69;3157058;28;20503;-79
2023/09/26 00:47:58;;;;;;;;;;;;;;;20.85;56.43;99949.44;3148477;28;19935;-79
2023/09/26 00:49:31;;;;;;;;;;;;;;;20.84;56.53;99939.81;3146383;28;19931;-82
2023/09/26 00:51:02;;;;;;;;;;;;;;;20.81;56.67;99940.91;3157662;28;19928;-80
2023/09/26 00:52:34;;;;;;;;;;;;;;;20.80;56.59;99943.72;3157332;28;19931;-79
2023/09/26 00:54:09;;;;;;;;;;;;;;;20.80;56.82;99954.28;3154109;28;19975;-79
2023/09/26 00:55:40;;;;;;;;;;;;;;;20.77;56.76;99944.81;3157686;28;19954;-74
2023/09/26 00:57:11;;;;;;;;;;;;;;;20.74;57.00;99950.38;3157396;28;19924;-80
2023/09/26 00:58:42;;;;;;;;;;;;;;;20.69;57.28;99949.91;3157677;28;20308;-80
2023/09/26 01:00:15;;;;;;;;;;;;;;;20.65;57.40;99946.69;3157367;28;19928;-78
2023/09/26 01:01:49;;;;;;;;;;;;;;;20.62;57.97;99941.66;3153138;28;20021;-79
2023/09/26 01:03:19;;;;;;;;;;;;;;;20.58;58.12;99944.69;3150920;28;19928;-79
2023/09/26 01:04:51;;;;;;;;;;;;;;;20.56;57.94;99944.00;3156502;28;20400;-78
2023/09/26 01:06:21;;;;;;;;;;;;;;;20.56;57.72;99942.19;3149932;28;20106;-79
2023/09/26 01:07:53;;;;;;;;;;;;;;;20.57;57.83;99948.31;3157462;28;19992;-79
2023/09/26 01:09:25;;;;;;;;;;;;;;;20.56;57.75;99942.19;3156530;28;20461;-79
2023/09/26 01:10:57;;;;;;;;;;;;;;;20.58;57.59;99945.50;3157782;28;19925;-80
2023/09/26 01:12:28;;;;;;;;;;;;;;;20.60;57.60;99938.28;3156854;28;19924;-79
2023/09/26 01:13:59;;;;;;;;;;;;;;;20.62;57.35;99946.13;3157301;28;19924;-79
2023/09/26 01:15:30;;;;;;;;;;;;;;;20.65;57.41;99945.84;3157837;28;19936;-79
2023/09/26 01:17:03;;;;;;;;;;;;;;;20.66;57.00;99947.53;3157551;28;19935;-78
2023/09/26 01:18:34;;;;;;;;;;;;;;;20.66;57.09;99939.59;3157781;28;19975;-80
2023/09/26 01:20:14;;;;;;;;;;;;;;;20.63;57.17;99948.63;3157617;28;19931;-80
2023/09/26 01:21:46;;;;;;;;;;;;;;;20.55;57.64;99948.41;3157275;28;19928;-79
2023/09/26 01:23:18;;;;;;;;;;;;;;;20.51;57.78;99941.69;3157829;28;19924;-80
2023/09/26 01:24:51;;;;;;;;;;;;;;;20.49;57.88;99940.97;3157686;28;20362;-80
2023/09/26 01:26:23;;;;;;;;;;;;;;;20.51;57.59;99948.78;3157771;28;19927;-80
2023/09/26 01:27:53;;;;;;;;;;;;;;;20.54;57.71;99954.69;3158041;28;19924;-81
2023/09/26 01:29:25;;;;;;;;;;;;;;;20.56;57.52;99955.41;3159842;28;20300;-80
2023/09/26 01:30:55;;;;;;;;;;;;;;;20.56;57.43;99950.13;3155524;28;19931;-78
2023/09/26 01:32:27;;;;;;;;;;;;;;;20.57;57.27;99954.44;3150954;28;19924;-79
2023/09/26 01:33:58;;;;;;;;;;;;;;;20.54;57.55;99948.56;3157473;28;19927;-77
2023/09/26 01:35:29;;;;;;;;;;;;;;;20.51;57.38;99948.78;3159841;28;19928;-76
2023/09/26 01:37:00;;;;;;;;;;;;;;;20.46;57.84;99954.47;3159890;28;19924;-79
2023/09/26 01:38:32;;;;;;;;;;;;;;;20.41;57.98;99956.66;3160029;28;19924;-78
2023/09/26 01:40:09;;;;;;;;;;;;;;;20.37;58.16;99947.31;3159214;28;19935;-78
2023/09/26 01:41:41;;;;;;;;;;;;;;;20.33;58.46;99945.88;3159557;28;19924;-79
2023/09/26 01:43:11;;;;;;;;;;;;;;;20.26;58.79;99950.00;3150723;28;20340;-81
2023/09/26 01:44:43;;;;;;;;;;;;;;;20.19;59.10;99953.16;3155647;28;20217;-79
2023/09/26 01:46:13;;;;;;;;;;;;;;;20.14;59.14;99952.72;3159001;28;19928;-77
2023/09/26 01:47:46;;;;;;;;;;;;;;;20.15;59.11;99959.66;3159703;28;19931;-77
2023/09/26 01:49:17;;;;;;;;;;;;;;;20.18;58.98;99953.28;3159441;28;19985;-76
2023/09/26 01:50:49;;;;;;;;;;;;;;;20.22;58.72;99949.41;3160253;28;20324;-80
2023/09/26 01:52:19;;;;;;;;;;;;;;;20.22;58.64;99950.25;3161658;28;19924;-79
2023/09/26 01:53:51;;;;;;;;;;;;;;;20.21;58.66;99951.22;3159673;28;20180;-79
2023/09/26 01:55:22;;;;;;;;;;;;;;;20.18;58.82;99946.19;3160932;28;19931;-79
2023/09/26 01:56:54;;;;;;;;;;;;;;;20.16;58.73;99950.75;3159873;28;20351;-78
2023/09/26 01:58:25;;;;;;;;;;;;;;;20.14;58.76;99947.44;3159781;28;20504;-80
2023/09/26 01:59:56;;;;;;;;;;;;;;;20.14;58.70;99952.72;3160875;28;19924;-79
2023/09/26 02:01:28;;;;;;;;;;;;;;;20.15;58.66;99948.25;3159014;28;19935;-79
2023/09/26 02:02:58;;;;;;;;;;;;;;;20.14;58.70;99947.44;3159181;28;20017;-80
2023/09/26 02:04:30;;;;;;;;;;;;;;;20.16;58.64;99942.81;3155527;28;19924;-79
2023/09/26 02:06:00;;;;;;;;;;;;;;;20.19;58.75;99947.84;3162432;28;19956;-78
2023/09/26 02:07:32;;;;;;;;;;;;;;;20.23;58.28;99946.66;3159253;28;19928;-78
2023/09/26 02:09:03;;;;;;;;;;;;;;;20.28;58.36;99954.19;3158881;28;19957;-78
2023/09/26 02:10:35;;;;;;;;;;;;;;;20.30;58.37;99943.50;3159162;28;19981;-78
2023/09/26 02:12:07;;;;;;;;;;;;;;;20.33;58.24;99944.06;3159439;28;19931;-78
2023/09/26 02:13:38;;;;;;;;;;;;;;;20.36;58.04;99951.75;3159480;28;19969;-79
2023/09/26 02:15:12;;;;;;;;;;;;;;;20.37;58.23;99956.06;3159246;28;19928;-80
2023/09/26 02:16:43;;;;;;;;;;;;;;;20.34;58.31;99958.13;3159286;28;19928;-80
2023/09/26 02:18:15;;;;;;;;;;;;;;;20.25;58.72;99959.75;3159354;28;19928;-80
2023/09/26 02:19:46;;;;;;;;;;;;;;;20.17;59.01;99955.09;3159235;28;19978;-81
2023/09/26 02:21:17;;;;;;;;;;;;;;;20.13;59.18;99958.94;3159413;28;19928;-78
2023/09/26 02:22:49;;;;;;;;;;;;;;;20.12;59.03;99956.44;3159653;28;19924;-80
2023/09/26 02:24:20;;;;;;;;;;;;;;;20.06;59.20;99946.38;3159376;28;20324;-78
2023/09/26 02:25:52;;;;;;;;;;;;;;;20.02;59.47;99948.41;3150625;28;20039;-78
2023/09/26 02:27:24;;;;;;;;;;;;;;;19.99;59.63;99957.47;3159319;28;20389;-79
2023/09/26 02:28:55;;;;;;;;;;;;;;;19.96;59.63;99952.38;3159708;28;19924;-77
2023/09/26 02:30:28;;;;;;;;;;;;;;;19.93;59.78;99949.16;3159054;28;20313;-70
2023/09/26 02:32:00;;;;;;;;;;;;;;;19.91;59.91;99957.25;3153828;28;20011;-71
2023/09/26 02:33:32;;;;;;;;;;;;;;;19.84;59.98;99940.19;3153471;28;20101;-81
2023/09/26 02:35:04;;;;;;;;;;;;;;;19.79;60.41;99947.66;3161092;28;19932;-81
2023/09/26 02:36:35;;;;;;;;;;;;;;;19.73;60.33;99951.66;3159335;28;19924;-78
2023/09/26 02:38:07;;;;;;;;;;;;;;;19.70;60.56;99951.91;3158881;28;20384;-77
2023/09/26 02:39:39;;;;;;;;;;;;;;;19.68;60.70;99950.34;3158540;28;19973;-77
2023/09/26 02:41:13;;;;;;;;;;;;;;;19.67;60.65;99951.28;3158864;28;19932;-75
2023/09/26 02:42:43;;;;;;;;;;;;;;;19.67;60.59;99952.16;3158757;28;19935;-75
2023/09/26 02:44:15;;;;;;;;;;;;;;;19.68;60.48;99952.97;3159121;28;19983;-76
2023/09/26 02:45:46;;;;;;;;;;;;;;;19.73;60.31;99961.38;3158552;28;19928;-76
2023/09/26 02:47:17;;;;;;;;;;;;;;;19.78;59.99;99956.53;3158958;28;19935;-75
2023/09/26 02:48:49;;;;;;;;;;;;;;;19.82;60.09;99962.41;3159356;28;19930;-77
2023/09/26 02:50:22;;;;;;;;;;;;;;;19.83;60.00;99958.81;3159054;28;19924;-77
2023/09/26 02:51:53;;;;;;;;;;;;;;;19.84;59.81;99961.31;3158832;28;19955;-77
2023/09/26 02:53:24;;;;;;;;;;;;;;;19.83;59.75;99956.19;3155518;28;19924;-76
2023/09/26 02:54:55;;;;;;;;;;;;;;;19.77;60.02;99953.06;3153183;28;19950;-76
2023/09/26 02:56:28;;;;;;;;;;;;;;;19.71;60.14;99953.56;3153802;28;19928;-76
2023/09/26 02:57:59;;;;;;;;;;;;;;;19.66;60.28;99955.72;3153177;28;19928;-76
2023/09/26 02:59:30;;;;;;;;;;;;;;;19.65;60.31;99956.69;3153522;28;19985;-77
2023/09/26 03:01:02;;;;;;;;;;;;;;;19.68;60.17;99960.91;3153262;28;20014;-75
2023/09/26 03:02:32;;;;;;;;;;;;;;;19.67;60.19;99968.00;3143258;28;19928;-76
2023/09/26 03:04:04;;;;;;;;;;;;;;;19.69;60.18;99971.34;3150310;28;19928;-77
2023/09/26 03:05:35;;;;;;;;;;;;;;;19.68;59.99;99956.44;3154258;28;19927;-76
2023/09/26 03:07:06;;;;;;;;;;;;;;;19.69;60.07;99963.41;3153687;28;20343;-76
2023/09/26 03:08:38;;;;;;;;;;;;;;;19.71;59.85;99964.13;3153491;28;19967;-76
2023/09/26 03:10:08;;;;;;;;;;;;;;;19.72;59.89;99960.50;3153155;28;19982;-78
2023/09/26 03:11:41;;;;;;;;;;;;;;;19.72;59.79;99963.16;3153139;28;20009;-78
2023/09/26 03:13:13;;;;;;;;;;;;;;;19.73;59.73;99964.03;3153223;28;19934;-77
2023/09/26 03:14:44;;;;;;;;;;;;;;;19.74;59.64;99961.25;3153197;28;19928;-76
2023/09/26 03:16:15;;;;;;;;;;;;;;;19.73;59.62;99967.50;3153333;28;19935;-76
2023/09/26 03:17:47;;;;;;;;;;;;;;;19.70;59.76;99969.53;3153134;28;19951;-77
2023/09/26 03:19:22;;;;;;;;;;;;;;;19.69;59.76;99960.75;3153009;28;19928;-76
2023/09/26 03:20:54;;;;;;;;;;;;;;;19.68;59.61;99967.03;3153123;28;20007;-76
2023/09/26 03:22:25;;;;;;;;;;;;;;;19.68;59.55;99966.19;3153554;28;19927;-76
2023/09/26 03:23:56;;;;;;;;;;;;;;;19.68;59.68;99964.38;3152950;28;20019;-76
2023/09/26 03:25:32;;;;;;;;;;;;;;;19.65;59.68;99959.34;3152988;28;19951;-76
2023/09/26 03:27:04;;;;;;;;;;;;;;;19.65;59.48;99959.34;3153187;28;20423;-76
2023/09/26 03:28:35;;;;;;;;;;;;;;;19.66;59.34;99961.00;3152933;28;20002;-76
2023/09/26 03:30:07;;;;;;;;;;;;;;;19.67;59.45;99962.72;3153171;28;19940;-76
2023/09/26 03:31:40;;;;;;;;;;;;;;;19.68;59.47;99960.91;3153071;28;19955;-77
2023/09/26 03:33:11;;;;;;;;;;;;;;;19.68;59.26;99959.09;3153341;28;19932;-77
2023/09/26 03:34:42;;;;;;;;;;;;;;;19.68;59.54;99964.38;3152995;28;19955;-77
2023/09/26 03:36:14;;;;;;;;;;;;;;;19.69;59.31;99968.69;3153006;28;20253;-77
2023/09/26 03:37:44;;;;;;;;;;;;;;;19.69;59.24;99962.56;3153394;28;20449;-77
2023/09/26 03:39:16;;;;;;;;;;;;;;;19.70;59.12;99966.88;3152498;28;19992;-77
2023/09/26 03:40:47;;;;;;;;;;;;;;;19.70;59.05;99964.25;3153829;28;19938;-77
2023/09/26 03:42:20;;;;;;;;;;;;;;;19.68;58.92;99964.38;3153039;28;19935;-77
2023/09/26 03:43:50;;;;;;;;;;;;;;;19.67;59.12;99961.84;3153128;28;19958;-77
2023/09/26 03:45:22;;;;;;;;;;;;;;;19.62;59.16;99967.47;3153055;28;19932;-77
2023/09/26 03:46:52;;;;;;;;;;;;;;;19.54;59.59;99967.25;3152878;28;20393;-77
2023/09/26 03:48:24;;;;;;;;;;;;;;;19.48;59.46;99971.22;3153300;28;19932;-78
2023/09/26 03:49:55;;;;;;;;;;;;;;;19.44;59.69;99967.16;3152962;28;19939;-77
2023/09/26 03:51:26;;;;;;;;;;;;;;;19.43;59.60;99973.41;3151543;28;19935;-78
2023/09/26 03:52:57;;;;;;;;;;;;;;;19.45;59.45;99965.34;3153133;28;19986;-78
2023/09/26 03:54:28;;;;;;;;;;;;;;;19.45;59.50;99965.34;3150231;28;20401;-77
2023/09/26 03:55:59;;;;;;;;;;;;;;;19.47;59.61;99968.72;3152993;28;19928;-77
2023/09/26 03:57:32;;;;;;;;;;;;;;;19.44;59.26;99969.78;3152479;28;20542;-77
2023/09/26 03:59:03;;;;;;;;;;;;;;;19.45;59.50;99973.28;3153482;28;19928;-77
2023/09/26 04:00:34;;;;;;;;;;;;;;;19.39;59.69;99961.38;3153238;28;19927;-77
2023/09/26 04:02:05;;;;;;;;;;;;;;;19.39;59.88;99973.75;3146230;28;19936;-77
2023/09/26 04:03:37;;;;;;;;;;;;;;;19.39;59.72;99968.47;3148945;28;19951;-77
2023/09/26 04:05:07;;;;;;;;;;;;;;;19.37;59.57;99980.94;3156015;28;20438;-77
2023/09/26 04:06:39;;;;;;;;;;;;;;;19.35;59.89;99980.25;3154521;28;19928;-78
2023/09/26 04:08:10;;;;;;;;;;;;;;;19.33;59.89;99980.38;3152242;28;19928;-77
2023/09/26 04:09:42;;;;;;;;;;;;;;;19.33;59.99;99983.00;3151749;28;19928;-78
2023/09/26 04:11:13;;;;;;;;;;;;;;;19.32;60.07;99984.81;3150657;28;20356;-78
2023/09/26 04:12:47;;;;;;;;;;;;;;;19.34;59.77;99982.03;3150403;28;19928;-77
2023/09/26 04:14:18;;;;;;;;;;;;;;;19.33;59.91;99985.66;3150443;28;19985;-76
2023/09/26 04:15:50;;;;;;;;;;;;;;;19.31;60.14;99988.41;3149864;28;19932;-78
2023/09/26 04:17:22;;;;;;;;;;;;;;;19.28;60.09;99993.91;3150251;28;20036;-70
2023/09/26 04:18:52;;;;;;;;;;;;;;;19.19;60.55;99989.34;3146680;28;20454;-72
2023/09/26 04:20:24;;;;;;;;;;;;;;;19.15;60.54;99987.09;3152428;28;19927;-74
2023/09/26 04:21:55;;;;;;;;;;;;;;;19.13;60.43;99987.19;3152452;28;20460;-75
2023/09/26 04:23:27;;;;;;;;;;;;;;;19.13;60.57;99991.63;3152722;28;19939;-74
2023/09/26 04:24:57;;;;;;;;;;;;;;;19.06;60.64;99989.47;3152451;28;19928;-75
2023/09/26 04:26:29;;;;;;;;;;;;;;;18.98;60.83;99993.66;3152453;28;20164;-75
2023/09/26 04:28:01;;;;;;;;;;;;;;;18.93;60.87;100001.09;3140570;28;20027;-75
2023/09/26 04:29:34;;;;;;;;;;;;;;;18.92;60.92;100007.34;3150928;28;19989;-74
2023/09/26 04:31:05;;;;;;;;;;;;;;;18.93;60.93;99996.69;3152433;28;19928;-66
2023/09/26 04:32:36;;;;;;;;;;;;;;;18.98;60.71;99998.94;3152693;28;19928;-64
2023/09/26 04:34:07;;;;;;;;;;;;;;;19.03;60.48;99996.78;3152412;28;19928;-63
2023/09/26 04:35:38;;;;;;;;;;;;;;;19.06;60.29;100000.03;3152222;28;19928;-65
2023/09/26 04:37:10;;;;;;;;;;;;;;;19.06;60.42;100002.69;3148689;28;19950;-65
2023/09/26 04:38:40;;;;;;;;;;;;;;;19.05;60.25;99995.72;3151525;28;19928;-67
2023/09/26 04:40:12;;;;;;;;;;;;;;;19.09;60.27;100004.25;3152230;28;19943;-65
2023/09/26 04:41:43;;;;;;;;;;;;;;;19.12;60.14;100000.53;3152319;28;19931;-64
2023/09/26 04:43:16;;;;;;;;;;;;;;;19.16;60.04;99994.03;3152735;28;20023;-66
2023/09/26 04:44:47;;;;;;;;;;;;;;;19.17;60.11;99995.75;3140460;28;20728;-66
2023/09/26 04:46:18;;;;;;;;;;;;;;;19.19;59.98;99996.44;3151944;28;20014;-65
2023/09/26 04:47:49;;;;;;;;;;;;;;;19.18;59.96;99995.59;3152501;28;19986;-68
2023/09/26 04:49:21;;;;;;;;;;;;;;;19.19;60.21;100004.34;3152404;28;19928;-72
2023/09/26 04:50:51;;;;;;;;;;;;;;;19.18;60.33;99998.25;3143497;28;20031;-71
2023/09/26 04:52:23;;;;;;;;;;;;;;;19.19;60.18;99999.09;3144556;28;20444;-67
2023/09/26 04:53:56;;;;;;;;;;;;;;;19.20;60.15;100003.41;3144377;28;19932;-69
2023/09/26 04:55:28;;;;;;;;;;;;;;;19.22;59.93;100002.31;3142326;28;20022;-71
2023/09/26 04:56:58;;;;;;;;;;;;;;;19.24;59.90;99996.94;3141991;28;19928;-70
2023/09/26 04:58:32;;;;;;;;;;;;;;;19.26;60.18;100008.22;3144539;28;19964;-72
2023/09/26 05:00:05;;;;;;;;;;;;;;;19.26;60.18;100003.78;3145683;28;20686;-69
2023/09/26 05:01:37;;;;;;;;;;;;;;;19.25;60.18;100009.16;3149144;28;20072;-68
2023/09/26 05:03:08;;;;;;;;;;;;;;;19.28;60.28;100009.75;3145279;28;19974;-66
2023/09/26 05:04:41;;;;;;;;;;;;;;;19.28;60.43;100007.13;3152045;28;19928;-66
2023/09/26 05:06:12;;;;;;;;;;;;;;;19.27;60.41;100016.00;3160157;28;19932;-67
2023/09/26 05:07:44;;;;;;;;;;;;;;;19.23;60.64;100006.66;3152012;28;20300;-68
2023/09/26 05:09:15;;;;;;;;;;;;;;;19.25;60.58;100010.00;3153696;28;19928;-67
2023/09/26 05:10:48;;;;;;;;;;;;;;;19.28;60.47;100014.19;3154619;28;19939;-67
2023/09/26 05:12:18;;;;;;;;;;;;;;;19.30;60.46;100015.75;3148828;28;20465;-67
2023/09/26 05:13:51;;;;;;;;;;;;;;;19.34;60.28;100016.34;3154791;28;20069;-71
2023/09/26 05:15:22;;;;;;;;;;;;;;;19.38;60.24;100015.19;3145845;28;20400;-70
2023/09/26 05:16:54;;;;;;;;;;;;;;;19.40;60.31;100015.88;3155039;28;19928;-67
2023/09/26 05:18:24;;;;;;;;;;;;;;;19.41;60.21;100014.94;3154815;28;20049;-67
2023/09/26 05:19:56;;;;;;;;;;;;;;;19.44;60.40;100019.13;3154408;28;19928;-69
2023/09/26 05:21:26;;;;;;;;;;;;;;;19.44;60.27;100019.97;3154360;28;19947;-68
2023/09/26 05:23:00;;;;;;;;;;;;;;;19.45;60.25;100013.72;3154640;28;19939;-67
2023/09/26 05:24:32;;;;;;;;;;;;;;;19.48;60.18;100016.13;3154215;28;19935;-67
2023/09/26 05:26:04;;;;;;;;;;;;;;;19.49;60.40;100019.59;3154672;28;20019;-65
2023/09/26 05:27:37;;;;;;;;;;;;;;;19.50;60.49;100022.13;3154593;28;19935;-66
2023/09/26 05:29:10;;;;;;;;;;;;;;;19.50;60.15;100027.41;3154731;28;19982;-67
2023/09/26 05:30:42;;;;;;;;;;;;;;;19.49;60.55;100022.25;3154170;28;19993;-66
2023/09/26 05:32:13;;;;;;;;;;;;;;;19.48;60.63;100018.75;3152783;28;20012;-68
2023/09/26 05:33:44;;;;;;;;;;;;;;;19.51;60.45;100017.69;3154054;28;20010;-69
2023/09/26 05:35:15;;;;;;;;;;;;;;;19.53;60.52;100023.69;3152499;28;19928;-68
2023/09/26 05:36:47;;;;;;;;;;;;;;;19.57;60.32;100025.13;3146809;28;19932;-70
2023/09/26 05:38:17;;;;;;;;;;;;;;;19.56;60.33;100026.09;3154356;28;20130;-68
2023/09/26 05:39:49;;;;;;;;;;;;;;;19.59;60.35;100023.22;3153418;28;20304;-69
2023/09/26 05:41:20;;;;;;;;;;;;;;;19.60;60.39;100024.88;3154088;28;19932;-67
2023/09/26 05:42:51;;;;;;;;;;;;;;;19.64;60.41;100013.13;3154445;28;20012;-67
2023/09/26 05:44:23;;;;;;;;;;;;;;;19.68;60.29;100011.09;3154206;28;20482;-67
2023/09/26 05:45:55;;;;;;;;;;;;;;;19.73;60.21;100014.22;3153605;28;20322;-68
2023/09/26 05:47:26;;;;;;;;;;;;;;;19.78;60.06;100023.44;3143281;28;20415;-66
2023/09/26 05:48:57;;;;;;;;;;;;;;;19.85;59.81;100023.81;3151284;28;20297;-67
2023/09/26 05:50:28;;;;;;;;;;;;;;;19.92;59.84;100016.22;3153904;28;19928;-68
2023/09/26 05:52:00;;;;;;;;;;;;;;;19.97;59.85;100021.97;3153815;28;19928;-67
2023/09/26 05:53:31;;;;;;;;;;;;;;;20.01;59.56;100020.75;3149798;28;20788;-68
2023/09/26 05:55:03;;;;;;;;;;;;;;;20.08;59.49;100021.94;3147627;28;19928;-69
2023/09/26 05:56:35;;;;;;;;;;;;;;;20.14;59.32;100023.22;3154066;28;19928;-69
2023/09/26 05:58:06;;;;;;;;;;;;;;;20.20;59.28;100020.94;3153860;28;20000;-68
2023/09/26 05:59:39;;;;;;;;;;;;;;;20.27;59.22;100018.63;3154221;28;20023;-69
2023/09/26 06:01:11;;;;;;;;;;;;;;;20.31;59.27;100019.22;3154133;28;19947;-68
2023/09/26 06:02:43;;;;;;;;;;;;;;;20.39;59.07;100027.38;3143605;28;19928;-68
2023/09/26 06:04:14;;;;;;;;;;;;;;;20.48;58.86;100029.25;3147187;28;20665;-68
2023/09/26 06:05:46;;;;;;;;;;;;;;;20.53;58.69;100018.28;3155968;28;19928;-68
2023/09/26 06:07:17;;;;;;;;;;;;;;;20.67;58.57;100023.28;3153752;28;20377;-66
2023/09/26 06:08:48;;;;;;;;;;;;;;;20.74;58.45;100026.28;3153996;28;19927;-68
2023/09/26 06:10:20;;;;;;;;;;;;;;;20.83;58.13;100025.50;3152884;28;19935;-67
2023/09/26 06:11:50;;;;;;;;;;;;;;;20.93;57.97;100022.91;3154038;28;20324;-68
2023/09/26 06:13:22;;;;;;;;;;;;;;;21.03;57.67;100023.78;3153917;28;19975;-69
2023/09/26 06:14:55;;;;;;;;;;;;;;;21.15;57.69;100028.06;3153954;28;19939;-68
2023/09/26 06:16:26;;;;;;;;;;;;;;;21.26;57.33;100021.81;3153382;28;20337;-67
2023/09/26 06:17:59;;;;;;;;;;;;;;;21.35;57.10;100028.97;3153730;28;19928;-69
2023/09/26 06:19:31;;;;;;;;;;;;;;;21.40;57.18;100029.44;3150912;28;19927;-67
2023/09/26 06:21:06;;;;;;;;;;;;;;;21.37;56.79;100024.41;3153109;28;19955;-70
2023/09/26 06:22:38;;;;;;;;;;;;;;;21.29;56.86;100030.34;3154179;28;19981;-70
2023/09/26 06:24:10;;;;;;;;;;;;;;;21.30;56.80;100025.91;3148718;28;19929;-72
2023/09/26 06:25:42;;;;;;;;;;;;;;;21.37;57.07;100029.72;3153776;28;19928;-71
2023/09/26 06:27:14;;;;;;;;;;;;;;;21.44;57.02;100028.19;3148319;28;19928;-72
2023/09/26 06:28:44;;;;;;;;;;;;;;;21.46;56.77;100033.38;3154113;28;19961;-70
2023/09/26 06:30:18;;;;;;;;;;;;;;;21.51;56.89;100036.47;3147538;28;20111;-69
2023/09/26 06:31:49;;;;;;;;;;;;;;;21.66;57.00;100031.66;3153964;28;19928;-71
2023/09/26 06:33:21;;;;;;;;;;;;;;;21.86;56.64;100024.56;3154049;28;19928;-70
2023/09/26 06:34:56;;;;;;;;;;;;;;;22.00;56.49;100025.00;3153572;28;19935;-70
2023/09/26 06:36:30;;;;;;;;;;;;;;;22.26;56.10;100033.31;3154004;28;19935;-71
2023/09/26 06:38:01;;;;;;;;;;;;;;;22.56;56.24;100026.19;3153781;28;19935;-70
2023/09/26 06:39:33;;;;;;;;;;;;;;;22.85;55.55;100034.13;3153094;28;19928;-68
2023/09/26 06:41:06;;;;;;;;;;;;;;;23.12;55.10;100038.69;3154307;28;19979;-71
2023/09/26 06:42:38;;;;;;;;;;;;;;;23.26;54.64;100039.22;3153230;28;19932;-69
2023/09/26 06:44:09;;;;;;;;;;;;;;;23.26;54.35;100042.72;3153641;28;19950;-69
2023/09/26 06:45:45;;;;;;;;;;;;;;;23.15;53.74;100043.72;3153270;28;19935;-69
2023/09/26 06:47:17;;;;;;;;;;;;;;;22.99;53.75;100046.16;3152787;28;20015;-69
2023/09/26 06:48:52;;;;;;;;;;;;;;;22.84;53.80;100040.41;3153823;28;19928;-68
2023/09/26 06:50:32;;;;;;;;;;;;;;;22.73;53.64;100037.09;3153378;28;19932;-72
2023/09/26 06:52:04;;;;;;;;;;;;;;;;;;3153282;28;19932;-72
2023/09/26 06:53:38;;;;;;;;;;;;;;;22.61;53.86;100039.03;3149617;28;19929;-72
2023/09/26 06:55:13;;;;;;;;;;;;;;;22.70;53.91;100040.84;3153346;28;19928;-72
2023/09/26 06:56:43;;;;;;;;;;;;;;;22.81;53.76;100045.19;3153656;28;19932;-73
2023/09/26 06:58:16;;;;;;;;;;;;;;;22.92;53.98;100043.22;3153410;28;19979;-73
2023/09/26 06:59:49;;;;;;;;;;;;;;;23.12;53.63;100048.50;3153088;28;19928;-72
2023/09/26 07:01:23;;;;;;;;;;;;;;;23.44;53.81;100045.44;3152671;28;19936;-72
2023/09/26 07:02:54;;;;;;;;;;;;;;;23.87;53.29;100051.13;3148395;28;20393;-71
2023/09/26 07:04:26;;;;;;;;;;;;;;;24.24;52.53;100045.72;3153283;28;19928;-71
2023/09/26 07:05:56;;;;;;;;;;;;;;;24.67;51.87;100045.00;3161965;28;20068;-74
2023/09/26 07:07:31;;;;;;;;;;;;;;;24.97;51.35;100042.88;3153035;28;19928;-74
2023/09/26 07:09:04;;;;;;;;;;;;;;;25.33;51.14;100042.78;3144082;28;19943;-73
2023/09/26 07:10:37;;;;;;;;;;;;;;;25.67;50.29;100040.09;3153939;28;20385;-75
2023/09/26 07:12:09;;;;;;;;;;;;;;;26.01;49.97;100041.91;3151603;28;20038;-73
2023/09/26 07:13:39;;;;;;;;;;;;;;;26.42;49.75;100039.31;3141108;28;20420;-75
2023/09/26 07:15:13;;;;;;;;;;;;;;;26.84;48.90;100044.50;3151291;28;19928;-75
2023/09/26 07:16:46;;;;;;;;;;;;;;;27.24;47.91;100045.44;3153577;28;19939;-74
2023/09/26 07:18:18;;;;;;;;;;;;;;;27.38;46.96;100044.75;3153461;28;19938;-73
2023/09/26 07:19:49;;;;;;;;;;;;;;;27.17;46.71;100042.63;3153142;28;19935;-73
2023/09/26 07:21:21;;;;;;;;;;;;;;;26.84;46.82;100039.16;3153138;28;19935;-72
2023/09/26 07:22:52;;;;;;;;;;;;;;;26.50;46.99;100032.19;3153430;28;20014;-74
2023/09/26 07:24:23;;;;;;;;;;;;;;;26.21;47.52;100039.78;3152899;28;19928;-77
2023/09/26 07:26:03;;;;;;;;;;;;;;;26.02;47.75;100031.06;3152983;28;20363;-76
2023/09/26 07:27:35;;;;;;;;;;;;;;;25.88;47.81;100042.34;3152834;28;20023;-75
2023/09/26 07:29:08;;;;;;;;;;;;;;;25.76;47.96;100039.13;3152751;28;20412;-69
2023/09/26 07:30:39;;;;;;;;;;;;;;;25.61;48.40;100038.91;3152776;28;20029;-71
2023/09/26 07:32:12;;;;;;;;;;;;;;;25.52;48.48;100034.53;3151923;28;20389;-72
2023/09/26 07:33:43;;;;;;;;;;;;;;;25.35;48.25;100040.78;3152613;28;20301;-70
2023/09/26 07:35:14;;;;;;;;;;;;;;;25.11;47.97;100044.97;3153674;28;20235;-72
2023/09/26 07:36:45;;;;;;;;;;;;;;;24.89;48.36;100048.16;3153500;28;19927;-70
2023/09/26 07:38:17;;;;;;;;;;;;;;;24.81;48.68;100048.06;3150224;28;20496;-70
2023/09/26 07:39:51;;;;;;;;;;;;;;;24.81;48.38;100048.06;3149807;28;19932;-70
2023/09/26 07:41:22;;;;;;;;;;;;;;;24.91;48.37;100054.16;3152583;28;20019;-68
2023/09/26 07:42:53;;;;;;;;;;;;;;;25.00;48.47;100045.22;3152611;28;19928;-69
2023/09/26 07:44:24;;;;;;;;;;;;;;;24.85;47.70;100044.13;3152947;28;19932;-68
2023/09/26 07:45:57;;;;;;;;;;;;;;;24.72;47.67;100050.66;3147887;28;19939;-73
2023/09/26 07:47:29;;;;;;;;;;;;;;;24.85;47.55;100050.28;3141269;28;19928;-75
2023/09/26 07:49:01;;;;;;;;;;;;;;;25.04;47.33;100053.75;3145791;28;20023;-70
2023/09/26 07:50:38;;;;;;;;;;;;;;;25.25;47.04;100048.91;3152421;28;19928;-63
2023/09/26 07:52:10;;;;;;;;;;;;;;;25.51;46.49;100040.03;3152894;28;19932;-63
2023/09/26 07:54:05;;;;;;;;;;;;;;;25.71;45.98;100045.97;3147780;28;19971;-65
2023/09/26 07:55:36;;;;;;;;;;;;;;;25.98;46.05;100043.06;3152633;28;19928;-64